Airfield :
LOGIN :

Register | Disclaimer

   EN    FR    IT 

 










Legend :    VFR   Marginal VFR   IFR   Intensive IFR   Very Intensive IFR
Visi :
Ceiling :
>= 8 km
>= 3000ft
5 to 8 km
1000 to 3000 ft
1500m to 5 km
500 to 1000 ft
800 to 1500m
200 to 500 ft
< 800m
< 200 ft
Symbols :   Thunderstorms  Fog  Heavy snow  Heavy precipitations  Wind > 20 kt
SIGMETs :     Misc.  Thunderstorms  Icing  Turbulence  Mountain Waves  Volcanic Ashes






- Airport Elevation : 141 ft
- IATA code : SKS


EKSP - Srydstrup Vojens

CURRENT METAR :
  • 111850Z 02005KT 350V050 7000 OVC006 04/03 Q1001

EXPIRED METARs :
  • 111820Z 03006KT 010V070 6000 OVC005 04/03 Q1001
  • 111750Z 02006KT 350V050 6000 OVC004 04/03 Q1000
  • 111720Z 04008KT 010V070 6000 OVC004 04/03 Q1000
  • 111650Z 04007KT 010V070 4000 BR OVC004 04/04 Q0999
  • 111620Z 03006KT 4000 BR OVC004 04/04 Q0999
  • 111550Z 02006KT 330V050 4000 BR OVC004 05/04 Q0999
  • 111520Z 03008KT 350V050 4000 BR OVC002 05/04 Q0998
  • 111513Z 03007KT 4000 BR OVC002 05/04 Q0998
  • 111450Z 03007KT 350V050 0900 R10/P2000N R28///// FG OVC002 05/04 Q0998

TAF TAF EKSP
Valid from the 11 at 18:00 until the 12 at 18:00 UTC


111700Z 1118/1218 07005KT 8000 BKN015
TEMPO 1118/1206 2500 BR BKN004
TEMPO 1206/1218 4000 BR BKN006



MET'MAP, your aeronautical weather chart ! - Copyright ORBIFLY December 2007 - Disclaimer

ORBIFLY MET'MAP TEAM :

Programming & Development : Alexandra Zaïnal
Original concept : Baudouin d'Aumeries
Technical & hardware support : Manuel Goepfert
Assistance : Marc-Olivier Méhu




SOURCES & CREDITS :

   NOAA